TimeCDT,TemperatureF,Dew PointF,Humidity,Sea Level PressureIn,VisibilityMPH,Wind Direction,Wind SpeedMPH,Gust SpeedMPH,PrecipitationIn,Events,Conditions,WindDirDegrees,DateUTC
12:15 AM,36.7,36.0,97,29.99,10.0,WNW,8.1,-,N/A,,Overcast,300,2013-10-23 05:15:00
12:35 AM,36.7,35.8,97,29.99,10.0,WNW,6.9,-,N/A,,Overcast,290,2013-10-23 05:35:00
12:55 AM,36.5,35.6,97,29.99,10.0,WNW,9.2,-,N/A,,Overcast,300,2013-10-23 05:55:00
1:15 AM,36.3,35.4,97,29.99,10.0,WNW,6.9,-,N/A,,Overcast,300,2013-10-23 06:15:00
1:35 AM,36.1,35.2,97,29.99,10.0,WNW,5.8,-,N/A,,Overcast,290,2013-10-23 06:35:00
1:55 AM,35.6,34.3,95,29.99,10.0,WNW,6.9,-,N/A,,Overcast,300,2013-10-23 06:55:00
2:15 AM,35.2,33.8,94,29.99,10.0,WNW,8.1,-,N/A,,Overcast,300,2013-10-23 07:15:00
2:35 AM,35.1,34.0,96,29.99,10.0,WNW,8.1,-,N/A,,Overcast,300,2013-10-23 07:35:00
2:55 AM,34.9,33.8,96,29.99,10.0,WNW,6.9,-,N/A,,Overcast,300,2013-10-23 07:55:00
3:15 AM,34.9,33.6,95,29.99,10.0,WNW,6.9,-,N/A,,Overcast,290,2013-10-23 08:15:00
3:35 AM,34.7,33.1,94,29.99,10.0,WNW,8.1,-,N/A,,Overcast,290,2013-10-23 08:35:00
3:55 AM,33.6,32.4,95,29.99,10.0,NW,6.9,-,N/A,,Overcast,310,2013-10-23 08:55:00
4:15 AM,32.5,32.0,98,29.99,10.0,WNW,6.9,-,N/A,,Mostly Cloudy,300,2013-10-23 09:15:00
4:35 AM,32.0,31.8,99,29.99,10.0,WNW,5.8,-,N/A,,Scattered Clouds,300,2013-10-23 09:35:00
4:55 AM,31.8,31.3,98,29.99,10.0,WNW,6.9,-,N/A,,Clear,300,2013-10-23 09:55:00
5:15 AM,31.5,30.9,98,30.01,10.0,WNW,6.9,-,N/A,,Clear,300,2013-10-23 10:15:00
5:35 AM,30.9,30.2,97,30.02,10.0,WNW,4.6,-,N/A,,Clear,290,2013-10-23 10:35:00
5:55 AM,29.8,29.7,99,30.02,10.0,West,5.8,-,N/A,,Clear,280,2013-10-23 10:55:00
6:15 AM,29.3,29.1,99,30.03,10.0,West,5.8,-,N/A,,Clear,280,2013-10-23 11:15:00
6:35 AM,28.9,28.8,99,30.03,10.0,WNW,5.8,-,N/A,,Clear,290,2013-10-23 11:35:00
6:55 AM,28.4,28.4,100,30.03,10.0,WNW,4.6,-,N/A,,Clear,290,2013-10-23 11:55:00
7:15 AM,28.2,28.2,100,30.03,10.0,WNW,5.8,-,N/A,,Clear,290,2013-10-23 12:15:00
7:35 AM,27.5,27.5,100,30.03,10.0,WNW,3.5,-,N/A,,Clear,290,2013-10-23 12:35:00
7:55 AM,28.2,28.2,100,30.05,10.0,NW,4.6,-,N/A,,Clear,310,2013-10-23 12:55:00
8:15 AM,30.0,29.3,97,30.06,10.0,West,4.6,-,N/A,,Scattered Clouds,280,2013-10-23 13:15:00
8:35 AM,30.9,30.6,99,30.06,10.0,West,3.5,-,N/A,,Mostly Cloudy,280,2013-10-23 13:35:00
8:55 AM,31.6,31.3,99,30.07,10.0,West,3.5,-,N/A,,Scattered Clouds,280,2013-10-23 13:55:00
9:15 AM,33.4,32.4,96,30.07,10.0,West,3.5,-,N/A,,Clear,280,2013-10-23 14:15:00
9:35 AM,35.8,33.6,92,30.07,10.0,WNW,9.2,-,N/A,,Clear,290,2013-10-23 14:35:00
9:55 AM,37.8,34.3,87,30.07,10.0,WNW,10.4,-,N/A,,Clear,290,2013-10-23 14:55:00
10:15 AM,39.4,34.3,82,30.07,10.0,NW,9.2,-,N/A,,Clear,320,2013-10-23 15:15:00
10:35 AM,40.1,34.3,80,30.08,10.0,WNW,8.1,-,N/A,,Scattered Clouds,290,2013-10-23 15:35:00
10:55 AM,40.8,33.6,76,30.07,10.0,West,8.1,-,N/A,,Scattered Clouds,280,2013-10-23 15:55:00
11:15 AM,41.7,32.7,70,30.07,10.0,West,10.4,-,N/A,,Scattered Clouds,280,2013-10-23 16:15:00
11:35 AM,42.8,33.6,70,30.07,10.0,West,13.8,-,N/A,,Scattered Clouds,270,2013-10-23 16:35:00
11:55 AM,43.3,33.4,68,30.08,10.0,West,9.2,-,N/A,,Mostly Cloudy,280,2013-10-23 16:55:00
12:15 PM,43.0,32.2,66,30.07,10.0,WNW,10.4,17.3,N/A,,Mostly Cloudy,290,2013-10-23 17:15:00
12:35 PM,42.8,31.1,63,30.06,10.0,West,8.1,-,N/A,,Overcast,280,2013-10-23 17:35:00
12:55 PM,42.1,31.3,66,30.06,10.0,WNW,9.2,-,N/A,,Overcast,300,2013-10-23 17:55:00
1:15 PM,42.6,30.9,63,30.05,10.0,WNW,10.4,-,N/A,,Overcast,290,2013-10-23 18:15:00
1:35 PM,43.0,31.5,64,30.05,10.0,West,11.5,17.3,N/A,,Overcast,280,2013-10-23 18:35:00
1:55 PM,42.8,30.4,62,30.05,10.0,West,12.7,-,N/A,,Overcast,270,2013-10-23 18:55:00
2:15 PM,43.2,30.7,62,30.04,10.0,West,11.5,-,N/A,,Overcast,270,2013-10-23 19:15:00
2:35 PM,43.3,29.8,59,30.04,10.0,West,13.8,19.6,N/A,,Overcast,280,2013-10-23 19:35:00
2:55 PM,43.5,30.7,61,30.04,10.0,West,10.4,-,N/A,,Overcast,280,2013-10-23 19:55:00
3:15 PM,42.1,29.8,62,30.04,10.0,WNW,10.4,-,N/A,,Overcast,290,2013-10-23 20:15:00
3:35 PM,42.4,29.5,60,30.04,10.0,West,8.1,-,N/A,,Overcast,280,2013-10-23 20:35:00
3:55 PM,42.3,28.9,59,30.04,10.0,West,8.1,17.3,N/A,,Overcast,280,2013-10-23 20:55:00
4:15 PM,42.3,28.9,59,30.04,10.0,West,10.4,-,N/A,,Overcast,280,2013-10-23 21:15:00
4:35 PM,41.9,28.2,58,30.04,10.0,West,11.5,-,N/A,,Overcast,280,2013-10-23 21:35:00
4:55 PM,41.7,28.4,59,30.04,10.0,West,9.2,-,N/A,,Overcast,280,2013-10-23 21:55:00
5:15 PM,41.4,27.7,58,30.05,10.0,WNW,9.2,-,N/A,,Overcast,300,2013-10-23 22:15:00
5:35 PM,41.0,28.0,60,30.05,10.0,WNW,10.4,16.1,N/A,,Overcast,290,2013-10-23 22:35:00
5:55 PM,39.4,28.9,66,30.06,10.0,West,8.1,-,N/A,,Mostly Cloudy,280,2013-10-23 22:55:00
6:15 PM,38.1,28.8,69,30.06,10.0,WNW,6.9,-,N/A,,Scattered Clouds,290,2013-10-23 23:15:00
6:35 PM,35.8,28.4,75,30.07,10.0,West,6.9,-,N/A,,Scattered Clouds,260,2013-10-23 23:35:00
6:55 PM,38.3,30.9,75,30.08,10.0,West,10.4,-,N/A,,Mostly Cloudy,270,2013-10-23 23:55:00
7:15 PM,36.5,30.7,80,30.09,10.0,West,8.1,-,N/A,,Scattered Clouds,260,2013-10-24 00:15:00
7:35 PM,36.5,31.3,81,30.09,10.0,West,8.1,-,N/A,,Mostly Cloudy,260,2013-10-24 00:35:00
7:55 PM,36.9,31.6,81,30.08,10.0,WSW,9.2,-,N/A,,Overcast,250,2013-10-24 00:55:00
8:15 PM,36.9,32.0,83,30.09,10.0,West,8.1,-,N/A,,Overcast,260,2013-10-24 01:15:00
8:35 PM,36.9,32.0,83,30.08,10.0,WSW,5.8,-,N/A,,Overcast,250,2013-10-24 01:35:00
8:55 PM,36.7,32.0,83,30.09,10.0,West,5.8,-,N/A,,Overcast,260,2013-10-24 01:55:00
9:15 PM,36.7,32.4,84,30.09,10.0,WSW,4.6,-,N/A,,Overcast,250,2013-10-24 02:15:00
9:35 PM,36.7,32.4,84,30.08,10.0,WSW,5.8,-,N/A,,Overcast,250,2013-10-24 02:35:00
9:55 PM,36.7,32.4,84,30.08,10.0,WSW,3.5,-,N/A,,Overcast,240,2013-10-24 02:55:00
10:15 PM,36.5,32.9,87,30.09,10.0,SW,3.5,-,N/A,,Overcast,230,2013-10-24 03:15:00
10:35 PM,36.5,32.9,87,30.08,10.0,SW,5.8,-,N/A,,Overcast,230,2013-10-24 03:35:00
10:55 PM,36.5,33.3,88,30.08,10.0,SW,5.8,-,N/A,,Overcast,230,2013-10-24 03:55:00
11:15 PM,36.7,33.8,89,30.08,10.0,SW,8.1,-,N/A,,Overcast,230,2013-10-24 04:15:00
11:35 PM,36.5,34.7,93,30.08,7.0,WSW,8.1,-,N/A,Rain,Light Rain,250,2013-10-24 04:35:00
11:55 PM,36.1,35.1,96,30.08,10.0,WSW,8.1,-,N/A,Rain,Light Rain,250,2013-10-24 04:55:00